Time;durP1;ratioP1;P1;durP2;ratioP2;P2;SDS_P1;SDS_P2;PMS_P1;PMS_P2;Temp;Humidity;BMP_temperature;BMP_pressure;BME280_temperature;BME280_humidity;BME280_pressure;Samples;Min_cycle;Max_cycle;Signal;HPM_P1;HPM_P2
2022/07/30 00:04:05;;;;;;;12.98;8.70;;;;;;;14.15;100.00;101719.84;10461018;28;20036;-72
2022/07/30 00:09:05;;;;;;;11.80;7.70;;;;;;;14.13;100.00;101709.03;10462495;28;20131;-72
2022/07/30 00:14:06;;;;;;;10.75;8.50;;;;;;;14.15;100.00;101717.09;10462298;28;20037;-71
2022/07/30 00:19:06;;;;;;;11.95;8.77;;;;;;;14.15;100.00;101722.63;10460894;28;20036;-69
2022/07/30 00:24:07;;;;;;;12.80;9.63;;;;;;;14.16;100.00;101724.31;10460687;28;20051;-72
2022/07/30 00:29:07;;;;;;;16.95;9.35;;;;;;;14.11;100.00;101702.91;10460208;28;20525;-72
2022/07/30 00:34:08;;;;;;;15.13;9.32;;;;;;;14.19;100.00;101714.66;10461886;28;20037;-72
2022/07/30 00:39:09;;;;;;;11.77;8.95;;;;;;;14.17;100.00;101701.06;10457447;28;20041;-71
2022/07/30 00:44:09;;;;;;;14.13;9.07;;;;;;;14.14;100.00;101704.34;10459707;28;20162;-72
2022/07/30 00:49:09;;;;;;;16.13;9.43;;;;;;;14.11;100.00;101708.47;10460317;28;20044;-71
2022/07/30 00:54:10;;;;;;;15.95;10.93;;;;;;;14.10;100.00;101703.19;10459411;28;20037;-71
2022/07/30 00:59:11;;;;;;;14.10;10.05;;;;;;;14.05;100.00;101694.81;10458929;28;20029;-71
2022/07/30 01:04:11;;;;;;;19.75;10.77;;;;;;;13.99;100.00;101698.59;10458154;28;20084;-71
2022/07/30 01:09:12;;;;;;;15.35;10.57;;;;;;;13.92;100.00;101702.41;10456954;28;20071;-72
2022/07/30 01:14:12;;;;;;;14.43;10.25;;;;;;;13.85;100.00;101701.78;10426513;28;20062;-72
2022/07/30 01:24:39;;;;;;;15.88;9.80;;;;;;;13.83;100.00;101698.41;10444865;28;20510;-72
2022/07/30 01:29:40;;;;;;;14.95;10.18;;;;;;;13.79;100.00;101694.50;10457940;28;20052;-72
2022/07/30 01:34:40;;;;;;;13.88;9.27;;;;;;;13.78;100.00;101691.97;10424502;28;20039;-71
2022/07/30 01:39:40;;;;;;;14.70;10.25;;;;;;;13.76;100.00;101686.69;10456669;28;20037;-72
2022/07/30 01:44:41;;;;;;;16.05;9.35;;;;;;;13.72;100.00;101685.53;10457634;28;20033;-71
2022/07/30 01:49:44;;;;;;;13.48;9.27;;;;;;;13.59;100.00;101669.31;10440646;28;20044;-71
2022/07/30 01:54:45;;;;;;;18.55;9.13;;;;;;;13.62;100.00;101666.88;10456722;28;20037;-71
2022/07/30 01:59:48;;;;;;;13.20;9.25;;;;;;;13.60;100.00;101663.53;10455843;28;20497;-72
2022/07/30 02:04:48;;;;;;;11.23;9.38;;;;;;;13.53;100.00;101671.97;10438795;28;20045;-71
2022/07/30 02:10:13;;;;;;;14.48;10.43;;;;;;;13.46;100.00;101665.81;10457470;28;20041;-71
2022/07/30 02:15:20;;;;;;;16.33;11.15;;;;;;;13.34;100.00;101651.25;10455702;28;20037;-72
2022/07/30 02:20:21;;;;;;;14.25;10.70;;;;;;;13.37;100.00;101669.25;10455435;28;20037;-72
2022/07/30 02:25:21;;;;;;;13.73;10.23;;;;;;;13.31;100.00;101657.25;10455717;28;20512;-71
2022/07/30 02:30:25;;;;;;;14.75;10.60;;;;;;;13.28;100.00;101657.75;10438534;28;20033;-71
2022/07/30 02:35:26;;;;;;;15.93;10.57;;;;;;;13.19;100.00;101645.44;10438530;28;20064;-71
2022/07/30 02:40:27;;;;;;;16.25;10.57;;;;;;;13.00;100.00;101623.59;10452840;28;20500;-71
2022/07/30 02:45:27;;;;;;;16.52;10.75;;;;;;;13.08;100.00;101648.06;10453539;28;20048;-71
2022/07/30 02:50:28;;;;;;;14.93;10.30;;;;;;;13.05;100.00;101654.09;10437807;28;20492;-71
2022/07/30 02:55:29;;;;;;;17.50;10.82;;;;;;;12.99;100.00;101657.84;10454871;28;20029;-70
2022/07/30 03:00:30;;;;;;;14.50;9.85;;;;;;;12.94;100.00;101660.56;10437655;28;20044;-72
2022/07/30 03:05:31;;;;;;;19.80;11.32;;;;;;;12.80;100.00;101650.91;10455439;28;20101;-71
2022/07/30 03:10:31;;;;;;;16.50;10.57;;;;;;;12.87;100.00;101662.63;10421219;28;20037;-72
2022/07/30 03:15:33;;;;;;;14.18;10.88;;;;;;;12.81;100.00;101669.97;10457008;28;20125;-71
2022/07/30 03:20:33;;;;;;;14.80;9.55;;;;;;;12.74;100.00;101668.50;10455109;28;20044;-71
2022/07/30 03:25:34;;;;;;;14.77;9.63;;;;;;;12.69;100.00;101672.84;10454303;28;20033;-71
2022/07/30 03:30:34;;;;;;;11.52;9.32;;;;;;;12.52;100.00;101642.41;10455765;28;20409;-71
2022/07/30 03:35:35;;;;;;;14.90;9.20;;;;;;;12.58;100.00;101664.59;10436446;28;20550;-72
2022/07/30 03:40:35;;;;;;;16.13;10.50;;;;;;;12.55;100.00;101665.94;10433189;28;20037;-71
2022/07/30 03:45:36;;;;;;;16.40;11.60;;;;;;;12.52;100.00;101663.66;10453482;28;20041;-71
2022/07/30 03:50:37;;;;;;;21.23;13.50;;;;;;;12.51;100.00;101662.00;10456257;28;20048;-71
2022/07/30 03:55:37;;;;;;;18.08;13.82;;;;;;;12.52;100.00;101658.97;10455525;28;20500;-72
2022/07/30 04:00:39;;;;;;;16.23;11.90;;;;;;;12.51;100.00;101665.59;10437515;28;20040;-67
2022/07/30 04:05:40;;;;;;;22.05;14.13;;;;;;;12.45;100.00;101652.78;10421822;28;20139;-71
2022/07/30 04:10:40;;;;;;;17.38;12.70;;;;;;;12.43;100.00;101667.94;10452582;28;20059;-72
2022/07/30 04:15:48;;;;;;;17.00;13.02;;;;;;;12.44;100.00;101672.34;10456430;28;20092;-72
2022/07/30 04:20:49;;;;;;;17.15;13.93;;;;;;;12.54;100.00;101680.81;10461550;28;20057;-71
2022/07/30 04:25:49;;;;;;;19.75;15.70;;;;;;;12.47;100.00;101669.09;10462460;28;20029;-70
2022/07/30 04:30:50;;;;;;;24.10;17.88;;;;;;;12.59;100.00;101692.00;10443845;28;20037;-71
2022/07/30 04:35:50;;;;;;;33.20;22.25;;;;;;;12.72;100.00;101699.94;10443997;28;20044;-71
2022/07/30 04:40:51;;;;;;;30.70;23.45;;;;;;;12.87;100.00;101706.84;10458811;28;20045;-71
2022/07/30 04:45:51;;;;;;;43.22;30.42;;;;;;;13.03;100.00;101708.78;10425501;28;20037;-71
2022/07/30 04:50:53;;;;;;;38.63;28.60;;;;;;;13.22;100.00;101703.84;10420653;28;20041;-71
2022/07/30 04:55:53;;;;;;;39.88;28.38;;;;;;;13.34;100.00;101701.03;10417996;28;20056;-72
2022/07/30 05:00:54;;;;;;;37.78;25.88;;;;;;;13.43;100.00;101710.56;10423780;28;20048;-66
2022/07/30 05:05:55;;;;;;;38.33;26.42;;;;;;;13.43;100.00;101705.03;10442021;28;20041;-71
2022/07/30 05:10:55;;;;;;;38.88;28.13;;;;;;;13.52;100.00;101709.03;10457976;28;20064;-71
2022/07/30 05:15:56;;;;;;;36.72;26.48;;;;;;;13.64;100.00;101710.88;10460420;28;20052;-71
2022/07/30 05:20:56;;;;;;;32.30;24.42;;;;;;;13.70;100.00;101712.59;10460087;28;20037;-71
2022/07/30 05:25:57;;;;;;;35.47;24.38;;;;;;;13.82;100.00;101716.09;10442014;28;20043;-71
2022/07/30 05:30:57;;;;;;;36.60;24.33;;;;;;;13.89;100.00;101713.16;10458720;28;20041;-70
2022/07/30 05:35:59;;;;;;;30.63;23.35;;;;;;;14.06;100.00;101721.41;10458604;28;20053;-71
2022/07/30 05:40:59;;;;;;;41.38;24.00;;;;;;;14.22;100.00;101725.19;10416567;28;20038;-71
2022/07/30 05:46:00;;;;;;;31.70;23.02;;;;;;;14.46;100.00;101728.53;10399713;28;20049;-71
2022/07/30 05:51:01;;;;;;;23.90;18.27;;;;;;;14.71;100.00;101731.63;10454513;28;20041;-68
2022/07/30 05:56:01;;;;;;;26.45;18.40;;;;;;;14.70;100.00;101651.53;10456466;28;20048;-64
2022/07/30 06:01:02;;;;;;;21.15;17.05;;;;;;;15.56;100.00;101713.47;10458731;28;20033;-71
2022/07/30 06:06:03;;;;;;;20.05;14.77;;;;;;;15.98;100.00;101718.19;10458823;28;20052;-71
2022/07/30 06:11:04;;;;;;;20.73;13.23;;;;;;;16.37;100.00;101701.13;10439202;28;20068;-71
2022/07/30 06:16:04;;;;;;;20.63;12.40;;;;;;;16.79;100.00;101702.91;10461345;28;20049;-72
2022/07/30 06:21:05;;;;;;;16.50;11.13;;;;;;;17.20;100.00;101683.44;10455695;28;20045;-72
2022/07/30 06:26:06;;;;;;;13.18;10.30;;;;;;;17.64;100.00;101702.31;10455294;28;20033;-73
2022/07/30 06:31:06;;;;;;;14.20;9.48;;;;;;;17.91;100.00;101702.00;10436373;28;20041;-71
2022/07/30 06:36:07;;;;;;;16.67;9.18;;;;;;;18.23;100.00;101707.19;10434030;28;20033;-72
2022/07/30 06:41:07;;;;;;;15.40;9.65;;;;;;;18.52;100.00;101717.59;10434923;28;20096;-72
2022/07/30 06:46:08;;;;;;;13.63;8.52;;;;;;;18.84;100.00;101707.97;10437421;28;20728;-65
2022/07/30 06:51:08;;;;;;;15.38;8.60;;;;;;;19.13;100.00;101722.78;10415589;28;20507;-72
2022/07/30 06:56:09;;;;;;;16.33;9.02;;;;;;;19.37;100.00;101722.06;10456565;28;20060;-72
2022/07/30 07:01:09;;;;;;;15.10;9.15;;;;;;;19.36;100.00;101712.00;10448279;28;20088;-72
2022/07/30 07:06:10;;;;;;;11.65;8.18;;;;;;;19.45;100.00;101710.25;10434581;28;20033;-72
2022/07/30 07:11:10;;;;;;;13.85;8.60;;;;;;;19.60;100.00;101714.00;10432095;28;20048;-72
2022/07/30 07:16:11;;;;;;;10.65;8.45;;;;;;;19.93;100.00;101706.69;10433547;28;20034;-72
2022/07/30 07:21:11;;;;;;;12.10;8.07;;;;;;;20.19;100.00;101710.00;10432591;28;20037;-72
2022/07/30 07:26:12;;;;;;;18.67;7.38;;;;;;;20.48;100.00;101718.25;10416246;28;20100;-64
2022/07/30 07:31:12;;;;;;;12.80;7.18;;;;;;;20.58;100.00;101720.13;10434409;28;22299;-71
2022/07/30 07:36:16;;;;;;;15.52;7.38;;;;;;;20.71;100.00;101711.00;10432882;28;20508;-72
2022/07/30 07:41:16;;;;;;;16.63;7.30;;;;;;;20.85;100.00;101704.63;10434105;28;20520;-71
2022/07/30 07:46:17;;;;;;;12.13;7.32;;;;;;;20.83;100.00;101718.09;10433896;28;20036;-72
2022/07/30 07:51:17;;;;;;;13.25;6.97;;;;;;;21.02;100.00;101720.88;10442047;28;20038;-71
2022/07/30 07:56:19;;;;;;;11.07;8.07;;;;;;;21.06;100.00;101714.34;10442113;28;20029;-71
2022/07/30 08:01:20;;;;;;;13.23;7.35;;;;;;;21.20;100.00;101721.97;10442359;28;20037;-71
2022/07/30 08:06:21;;;;;;;10.70;8.00;;;;;;;21.34;100.00;101720.88;10441036;28;20037;-71
2022/07/30 08:11:21;;;;;;;14.93;7.85;;;;;;;21.47;100.00;101715.66;10442057;28;20065;-71
2022/07/30 08:16:22;;;;;;;14.30;8.48;;;;;;;21.53;100.00;101712.44;10440027;28;20037;-71
2022/07/30 08:21:22;;;;;;;11.15;6.82;;;;;;;21.63;100.00;101725.44;10441809;28;20030;-71
2022/07/30 08:26:23;;;;;;;9.50;6.20;;;;;;;21.90;100.00;101719.03;10432804;28;20034;-72
2022/07/30 08:31:23;;;;;;;16.27;7.03;;;;;;;21.97;100.00;101715.81;10421245;28;20041;-71
2022/07/30 08:36:24;;;;;;;11.77;5.75;;;;;;;22.28;100.00;101707.63;10431063;28;20044;-65
2022/07/30 08:41:24;;;;;;;11.10;6.00;;;;;;;22.49;100.00;101704.34;10442005;28;22594;-72
2022/07/30 08:46:26;;;;;;;10.98;6.93;;;;;;;22.73;100.00;101718.13;10426004;28;20057;-72
2022/07/30 08:51:27;;;;;;;14.30;6.93;;;;;;;22.90;100.00;101704.25;10418985;28;20045;-73
2022/07/30 08:56:27;;;;;;;13.35;5.13;;;;;;;23.06;100.00;101699.09;10403026;28;20125;-72
2022/07/30 09:01:27;;;;;;;11.45;4.43;;;;;;;23.33;100.00;101708.53;10418142;28;20083;-72
2022/07/30 09:06:28;;;;;;;7.78;4.43;;;;;;;23.62;100.00;101707.22;10419804;28;20045;-71
2022/07/30 09:11:28;;;;;;;12.73;4.78;;;;;;;23.89;100.00;101701.41;10452070;28;20052;-72
2022/07/30 09:16:29;;;;;;;5.13;3.90;;;;;;;24.04;100.00;101699.28;10457708;28;20037;-70
2022/07/30 09:21:30;;;;;;;15.27;4.63;;;;;;;24.09;100.00;101699.16;10458643;28;20030;-72
2022/07/30 09:26:34;;;;;;;11.60;3.83;;;;;;;24.27;97.68;101703.69;10458054;28;20073;-71
2022/07/30 09:31:34;;;;;;;8.20;4.85;;;;;;;24.11;96.98;101699.66;10419981;28;20042;-72
2022/07/30 09:36:34;;;;;;;8.05;4.82;;;;;;;24.21;99.87;101699.38;10400779;28;20037;-73
2022/07/30 09:41:36;;;;;;;7.80;3.92;;;;;;;24.44;100.00;101704.88;10416176;28;20048;-74
2022/07/30 09:46:46;;;;;;;11.93;4.63;;;;;;;24.40;94.86;101713.13;10427632;28;20041;-73
2022/07/30 09:51:46;;;;;;;5.78;3.88;;;;;;;24.37;94.73;101706.19;10458071;28;20060;-72
2022/07/30 09:56:47;;;;;;;12.85;4.47;;;;;;;24.65;95.52;101719.16;10458189;28;20033;-73
2022/07/30 10:01:51;;;;;;;7.07;3.45;;;;;;;25.13;93.71;101702.06;10459398;28;20045;-72
2022/07/30 10:06:51;;;;;;;7.50;3.85;;;;;;;25.28;89.33;101697.97;10457246;28;20033;-73
2022/07/30 10:11:56;;;;;;;11.35;3.95;;;;;;;25.50;86.62;101696.88;10456382;28;20067;-73
2022/07/30 10:16:57;;;;;;;6.65;3.40;;;;;;;25.50;87.67;101694.06;10458706;28;20045;-73
2022/07/30 10:21:58;;;;;;;8.65;4.10;;;;;;;24.72;92.99;101720.34;10459043;28;20052;-73
2022/07/30 10:26:58;;;;;;;8.63;3.42;;;;;;;25.19;90.53;101705.53;10459133;28;20544;-73
2022/07/30 10:31:59;;;;;;;7.82;3.22;;;;;;;25.54;85.55;101695.03;10489938;28;20037;-74
2022/07/30 10:37:02;;;;;;;14.45;4.15;;;;;;;25.77;82.48;101596.91;10455572;28;20037;-72
2022/07/30 10:42:08;;;;;;;5.28;2.90;;;;;;;26.92;78.44;101685.31;10438574;28;20045;-73
2022/07/30 10:47:12;;;;;;;7.30;3.80;;;;;;;26.46;78.66;101687.13;10456066;28;20037;-72
2022/07/30 10:52:13;;;;;;;9.50;3.90;;;;;;;26.03;81.14;101705.19;10456884;28;20491;-73
2022/07/30 10:57:13;;;;;;;8.60;3.30;;;;;;;26.37;80.09;101690.84;10457559;28;20037;-73
2022/07/30 11:02:14;;;;;;;13.30;3.53;;;;;;;25.32;78.37;101690.50;10431909;28;20490;-73
2022/07/30 11:07:21;;;;;;;6.45;3.42;;;;;;;25.46;81.27;101700.72;10414289;28;20171;-73
2022/07/30 11:12:41;;;;;;;8.85;3.15;;;;;;;25.85;79.28;101693.13;10447989;28;20037;-72
2022/07/30 11:17:59;;;;;;;7.63;3.53;;;;;;;26.03;76.24;101693.91;10443146;28;20053;-73
2022/07/30 11:23:18;;;;;;;5.00;2.67;;;;;;;26.22;75.60;101688.63;10415539;28;20034;-74
2022/07/30 11:28:36;;;;;;;4.38;2.10;;;;;;;26.90;77.11;101693.28;10440992;28;20033;-74
2022/07/30 11:33:37;;;;;;;7.20;2.72;;;;;;;27.11;72.76;101677.13;10457070;28;20475;-73
2022/07/30 11:38:58;;;;;;;7.10;2.53;;;;;;;27.66;70.61;101651.56;10454005;28;20037;-73
2022/07/30 11:44:27;;;;;;;6.93;2.90;;;;;;;27.33;69.67;101672.28;10440291;28;20176;-72
2022/07/30 11:49:34;;;;;;;8.55;2.58;;;;;;;26.82;72.99;101682.91;10454689;28;20040;-73
2022/07/30 11:54:53;;;;;;;5.88;2.42;;;;;;;27.24;71.31;101678.00;10456942;28;20111;-72
2022/07/30 11:59:54;;;;;;;4.35;1.83;;;;;;;28.36;68.11;101655.09;10455850;28;20056;-73
2022/07/30 12:04:54;;;;;;;5.43;2.28;;;;;;;28.84;65.75;101651.69;10453687;28;20069;-73
2022/07/30 12:10:11;;;;;;;9.18;3.42;;;;;;;29.25;64.79;101646.75;10454776;28;20091;-73
2022/07/30 12:15:30;;;;;;;3.70;2.50;;;;;;;29.02;64.00;101660.66;10451895;28;20037;-73
2022/07/30 12:20:31;;;;;;;6.18;2.65;;;;;;;28.40;65.46;101668.53;10454813;28;20381;-73
2022/07/30 12:25:31;;;;;;;4.80;2.70;;;;;;;29.10;62.50;101652.03;10455697;28;20029;-73
2022/07/30 12:30:32;;;;;;;3.17;2.15;;;;;;;28.89;61.77;101645.75;10455643;28;20033;-72
2022/07/30 12:35:43;;;;;;;10.60;2.75;;;;;;;28.82;60.80;101663.38;10441051;28;20048;-73
2022/07/30 12:40:54;;;;;;;4.30;1.95;;;;;;;28.82;61.87;101662.56;10459945;28;20094;-73
2022/07/30 12:45:57;;;;;;;7.70;1.90;;;;;;;29.62;59.51;101649.31;10459825;28;20112;-74
2022/07/30 12:51:06;;;;;;;5.75;1.85;;;;;;;30.58;57.16;101622.41;10462587;28;20033;-73
2022/07/30 12:56:18;;;;;;;4.70;1.88;;;;;;;30.26;55.49;101582.72;10461650;28;20029;-71
2022/07/30 13:01:18;;;;;;;6.80;2.03;;;;;;;31.06;53.61;101620.16;10462504;28;20037;-69
2022/07/30 13:06:22;;;;;;;4.20;1.73;;;;;;;29.82;57.10;101648.25;10458879;28;20037;-70
2022/07/30 13:11:36;;;;;;;6.95;1.77;;;;;;;30.19;55.01;101633.72;10458998;28;20067;-72
2022/07/30 13:16:36;;;;;;;5.82;1.52;;;;;;;30.96;52.75;101620.75;10442985;28;20496;-70
2022/07/30 13:21:37;;;;;;;8.75;1.77;;;;;;;31.68;51.14;101608.66;10458926;28;20040;-71
2022/07/30 13:26:38;;;;;;;10.05;1.95;;;;;;;31.99;50.36;101612.41;10461149;28;20087;-70
2022/07/30 13:31:39;;;;;;;3.72;1.70;;;;;;;32.11;50.19;101620.72;10460686;28;20065;-77
2022/07/30 13:36:40;;;;;;;5.05;1.35;;;;;;;31.32;50.30;101625.09;10458173;28;20033;-72
2022/07/30 13:41:41;;;;;;;4.78;1.95;;;;;;;30.80;50.32;101622.84;10446543;28;20042;-70
2022/07/30 13:46:41;;;;;;;6.03;1.42;;;;;;;30.34;50.03;101630.00;10433309;28;20029;-72
2022/07/30 13:51:41;;;;;;;4.63;1.30;;;;;;;30.62;49.32;101617.63;10439894;28;20740;-68
2022/07/30 13:56:42;;;;;;;4.13;1.48;;;;;;;29.20;50.97;101635.69;10437331;28;20037;-76
2022/07/30 14:01:42;;;;;;;7.55;2.35;;;;;;;28.54;52.25;101641.50;10437818;28;20132;-69
2022/07/30 14:06:43;;;;;;;5.85;1.60;;;;;;;28.50;53.12;101636.91;10437751;28;20044;-72
2022/07/30 14:11:43;;;;;;;4.10;2.03;;;;;;;29.30;50.75;101627.47;10436866;28;20076;-74
2022/07/30 14:16:45;;;;;;;3.45;1.35;;;;;;;29.87;49.97;101632.94;10426256;28;20080;-72
2022/07/30 14:21:46;;;;;;;6.57;1.33;;;;;;;29.55;48.69;101639.44;10435804;28;20042;-77
2022/07/30 14:26:47;;;;;;;5.72;1.50;;;;;;;29.36;49.82;101630.84;10434192;28;20042;-73
2022/07/30 14:31:47;;;;;;;4.18;1.30;;;;;;;29.74;48.57;101629.41;10435215;28;20049;-70
2022/07/30 14:36:47;;;;;;;5.22;1.83;;;;;;;29.62;48.40;101620.97;10437761;28;20058;-72
2022/07/30 14:41:48;;;;;;;4.70;1.67;;;;;;;29.61;48.21;101636.34;10435099;28;20044;-72
2022/07/30 14:46:48;;;;;;;4.43;1.45;;;;;;;29.58;47.52;101633.06;10448276;28;20036;-73
2022/07/30 14:51:49;;;;;;;5.30;1.58;;;;;;;29.14;48.74;101630.25;10442697;28;20420;-72
2022/07/30 14:56:49;;;;;;;4.20;1.60;;;;;;;27.81;50.78;101614.09;10433479;28;20045;-72
2022/07/30 15:01:51;;;;;;;3.70;1.90;;;;;;;27.83;50.96;101645.69;10436456;28;20037;-72
2022/07/30 15:06:51;;;;;;;6.65;1.70;;;;;;;28.38;55.77;101672.56;10439380;28;20105;-72
2022/07/30 15:11:52;;;;;;;4.43;1.52;;;;;;;28.25;57.78;101679.41;10438901;28;20060;-71
2022/07/30 15:16:52;;;;;;;4.18;1.38;;;;;;;28.14;52.83;101649.94;10442310;28;20053;-72
2022/07/30 15:21:53;;;;;;;6.10;1.25;;;;;;;28.80;47.81;101617.56;10436468;28;20049;-71
2022/07/30 15:26:55;;;;;;;4.55;0.98;;;;;;;29.59;46.20;101616.84;10453756;28;20394;-72
2022/07/30 15:31:56;;;;;;;3.72;1.38;;;;;;;29.95;45.26;101612.91;10432490;28;20048;-71
2022/07/30 15:36:56;;;;;;;2.10;1.20;;;;;;;30.33;41.95;101599.16;10434142;28;20037;-72
2022/07/30 15:41:57;;;;;;;2.38;0.93;;;;;;;30.15;42.46;101599.53;10437050;28;20041;-72
2022/07/30 15:46:58;;;;;;;3.55;0.90;;;;;;;30.71;43.18;101600.34;10453896;28;20041;-73
2022/07/30 15:51:59;;;;;;;3.17;1.10;;;;;;;30.49;43.85;101611.28;10453912;28;20041;-73
2022/07/30 15:56:59;;;;;;;2.20;0.80;;;;;;;30.74;43.80;101617.47;10453804;28;20041;-72
2022/07/30 16:02:00;;;;;;;3.72;0.95;;;;;;;30.01;46.67;101646.66;10456109;28;20033;-73
2022/07/30 16:07:00;;;;;;;3.92;1.20;;;;;;;29.55;49.10;101656.47;10438151;28;20509;-73
2022/07/30 16:12:01;;;;;;;8.10;1.33;;;;;;;28.16;52.77;101673.06;10438214;28;20064;-73
2022/07/30 16:17:01;;;;;;;3.58;1.25;;;;;;;26.32;56.93;101696.69;10451912;28;20033;-72
2022/07/30 16:22:02;;;;;;;3.35;1.17;;;;;;;25.80;59.60;101705.41;10446033;28;20087;-67
2022/07/30 16:27:02;;;;;;;3.65;1.35;;;;;;;26.11;57.65;101695.84;10448114;28;20093;-73
2022/07/30 16:32:03;;;;;;;4.15;1.10;;;;;;;25.61;58.27;101705.78;10431550;28;20082;-72
2022/07/30 16:37:04;;;;;;;5.10;0.93;;;;;;;25.29;57.97;101701.59;10445176;28;20552;-73
2022/07/30 16:42:04;;;;;;;4.05;0.93;;;;;;;24.60;58.22;101714.53;10443094;28;20040;-72
2022/07/30 16:47:04;;;;;;;1.98;1.00;;;;;;;24.23;59.29;101718.75;10461621;28;20067;-73
2022/07/30 16:52:05;;;;;;;1.88;1.10;;;;;;;23.39;62.96;101735.34;10462858;28;20055;-73
2022/07/30 16:57:05;;;;;;;3.95;1.08;;;;;;;22.99;65.60;101743.63;10427018;28;20087;-73
2022/07/30 17:02:06;;;;;;;2.20;1.05;;;;;;;22.63;68.53;101752.88;10460910;28;20033;-73
2022/07/30 17:07:06;;;;;;;3.03;1.20;;;;;;;22.50;69.98;101759.34;10441128;28;20041;-73
2022/07/30 17:12:07;;;;;;;4.88;1.00;;;;;;;22.30;71.87;101767.06;10419038;28;20060;-75
2022/07/30 17:17:08;;;;;;;4.15;1.02;;;;;;;22.23;73.20;101758.22;10420236;28;20551;-72
2022/07/30 17:22:08;;;;;;;2.45;1.23;;;;;;;22.16;73.33;101771.81;10412249;28;20052;-73
2022/07/30 17:27:09;;;;;;;1.88;1.02;;;;;;;22.01;74.79;101769.28;10399999;28;20041;-73
2022/07/30 17:32:10;;;;;;;1.75;1.08;;;;;;;21.89;72.82;101769.78;10416356;28;20045;-73
2022/07/30 17:37:11;;;;;;;5.60;1.23;;;;;;;21.59;72.08;101771.22;10407389;28;20041;-72
2022/07/30 17:42:11;;;;;;;2.42;1.02;;;;;;;21.52;71.97;101769.63;10411545;28;20068;-73
2022/07/30 17:47:12;;;;;;;1.10;0.98;;;;;;;21.44;72.69;101777.91;10417678;28;20037;-73
2022/07/30 17:52:12;;;;;;;2.08;1.23;;;;;;;21.36;73.63;101771.81;10417892;28;20042;-72
2022/07/30 17:57:14;;;;;;;4.18;0.73;;;;;;;21.34;73.40;101778.88;10415592;28;20060;-72
2022/07/30 18:02:14;;;;;;;3.22;1.20;;;;;;;21.26;74.41;101776.75;10415816;28;20448;-73
2022/07/30 18:07:14;;;;;;;3.22;1.10;;;;;;;21.30;74.88;101777.81;10431834;28;20059;-73
2022/07/30 18:12:15;;;;;;;1.88;1.08;;;;;;;21.25;75.12;101778.75;10456290;28;20072;-70
2022/07/30 18:17:15;;;;;;;3.08;1.23;;;;;;;21.17;76.88;101776.63;10457749;28;20064;-73
2022/07/30 18:22:16;;;;;;;3.63;1.17;;;;;;;21.07;76.78;101776.78;10422941;28;20033;-72
2022/07/30 18:27:16;;;;;;;5.32;1.45;;;;;;;20.99;77.83;101783.06;10455335;28;20040;-68
2022/07/30 18:32:17;;;;;;;2.55;1.50;;;;;;;20.84;79.68;101801.75;10448095;28;20041;-70
2022/07/30 18:37:18;;;;;;;7.45;1.45;;;;;;;20.70;84.97;101810.06;10436052;28;20060;-72
2022/07/30 18:42:18;;;;;;;4.93;1.30;;;;;;;20.59;85.66;101805.72;10438230;28;20037;-73
2022/07/30 18:47:18;;;;;;;5.78;1.73;;;;;;;20.50;84.01;101799.09;10438860;28;20044;-72
2022/07/30 18:52:19;;;;;;;4.38;1.80;;;;;;;20.44;83.41;101803.09;10435813;28;20041;-72
2022/07/30 18:57:20;;;;;;;4.05;1.25;;;;;;;20.41;82.61;101790.53;10435771;28;20052;-73
2022/07/30 19:02:24;;;;;;;3.90;1.15;;;;;;;20.40;84.02;101790.81;10433651;28;20079;-72
2022/07/30 19:07:24;;;;;;;7.05;1.40;;;;;;;20.38;84.68;101793.91;10441801;28;20032;-73
2022/07/30 19:12:31;;;;;;;1.88;0.93;;;;;;;20.27;83.45;101804.41;10454899;28;20045;-73
2022/07/30 19:17:31;;;;;;;3.03;1.15;;;;;;;20.17;84.07;101796.13;10435329;28;20056;-73
2022/07/30 19:22:32;;;;;;;6.53;1.08;;;;;;;20.03;83.82;101784.84;10422887;28;20047;-72
2022/07/30 19:27:33;;;;;;;7.68;1.40;;;;;;;20.02;86.93;101801.91;10439148;28;20064;-73
2022/07/30 19:32:34;;;;;;;5.13;1.27;;;;;;;19.91;86.84;101802.00;10438969;28;20039;-71
2022/07/30 19:37:35;;;;;;;2.50;1.08;;;;;;;19.84;87.14;101806.25;10441749;28;20076;-72
2022/07/30 19:42:37;;;;;;;2.47;1.00;;;;;;;19.79;88.74;101812.75;10436628;28;20642;-73
2022/07/30 19:47:37;;;;;;;4.05;0.93;;;;;;;19.69;91.05;101812.78;10446276;28;20123;-72
2022/07/30 19:52:39;;;;;;;4.18;1.20;;;;;;;19.64;90.72;101824.03;10451889;28;20047;-73
2022/07/30 19:57:39;;;;;;;3.92;1.25;;;;;;;19.60;90.80;101828.53;10464051;28;20033;-74
2022/07/30 20:02:40;;;;;;;2.72;0.90;;;;;;;19.55;92.85;101818.22;10464211;28;20067;-73
2022/07/30 20:07:40;;;;;;;3.15;1.00;;;;;;;19.33;93.02;101799.16;10460124;28;20103;-73
2022/07/30 20:12:41;;;;;;;3.10;0.90;;;;;;;19.39;94.37;101820.31;10475758;28;20114;-74
2022/07/30 20:17:42;;;;;;;3.35;1.05;;;;;;;19.34;95.87;101823.97;10464063;28;20048;-73
2022/07/30 20:22:42;;;;;;;4.28;1.02;;;;;;;19.29;96.71;101814.81;10446221;28;20029;-73
2022/07/30 20:27:43;;;;;;;4.15;1.25;;;;;;;19.22;96.93;101814.28;10444215;28;20033;-73
2022/07/30 20:32:43;;;;;;;3.17;1.20;;;;;;;19.12;98.26;101804.88;10458887;28;20053;-68
2022/07/30 20:37:44;;;;;;;2.28;1.40;;;;;;;19.07;100.00;101818.84;10459958;28;20037;-73
2022/07/30 20:42:45;;;;;;;2.88;1.52;;;;;;;19.02;100.00;101832.84;10462007;28;20032;-73
2022/07/30 20:47:47;;;;;;;9.68;1.73;;;;;;;19.01;100.00;101830.34;10461619;28;20037;-73
2022/07/30 20:52:48;;;;;;;5.00;1.65;;;;;;;19.03;100.00;101828.09;10431642;28;20044;-73
2022/07/30 20:57:48;;;;;;;5.43;1.88;;;;;;;19.06;100.00;101836.72;10459190;28;20056;-74
2022/07/30 21:02:48;;;;;;;6.45;1.90;;;;;;;19.05;100.00;101818.31;10437553;28;20033;-73
2022/07/30 21:07:49;;;;;;;3.58;2.08;;;;;;;19.07;100.00;101818.84;10439734;28;20040;-73
2022/07/30 21:12:50;;;;;;;5.72;2.35;;;;;;;19.03;100.00;101812.19;10414480;28;20053;-73
2022/07/30 21:17:50;;;;;;;5.72;2.20;;;;;;;18.99;100.00;101810.25;10416844;28;20544;-72
2022/07/30 21:22:51;;;;;;;6.28;2.95;;;;;;;18.90;100.00;101801.66;10441782;28;20069;-66
2022/07/30 21:27:52;;;;;;;4.28;2.75;;;;;;;18.80;100.00;101801.72;10453344;28;20535;-72
2022/07/30 21:32:53;;;;;;;6.18;2.60;;;;;;;18.42;100.00;101762.25;10436922;28;20055;-73
2022/07/30 21:37:53;;;;;;;5.13;2.85;;;;;;;18.60;100.00;101820.19;10454328;28;20060;-74
2022/07/30 21:42:54;;;;;;;4.47;2.70;;;;;;;18.45;100.00;101804.34;10457095;28;20049;-73
2022/07/30 21:47:54;;;;;;;5.50;2.67;;;;;;;18.49;100.00;101807.41;10445940;28;20041;-72
2022/07/30 21:52:55;;;;;;;4.35;2.60;;;;;;;18.42;100.00;101787.34;10458998;28;20045;-74
2022/07/30 21:57:56;;;;;;;4.82;2.00;;;;;;;18.48;100.00;101791.78;10458098;28;20400;-72
2022/07/30 22:02:56;;;;;;;5.88;2.40;;;;;;;18.41;100.00;101780.94;10457611;28;20064;-70
2022/07/30 22:07:57;;;;;;;3.40;2.53;;;;;;;18.41;100.00;101782.91;10456148;28;20117;-74
2022/07/30 22:12:58;;;;;;;6.95;4.38;;;;;;;18.41;100.00;101789.31;10457672;28;20041;-74
2022/07/30 22:17:59;;;;;;;5.85;2.70;;;;;;;18.43;100.00;101789.88;10457359;28;20048;-74
2022/07/30 22:23:00;;;;;;;6.45;2.55;;;;;;;18.47;100.00;101782.59;10438107;28;20045;-74
2022/07/30 22:28:01;;;;;;;4.32;2.60;;;;;;;18.45;100.00;101781.22;10454565;28;20049;-74
2022/07/30 22:33:15;;;;;;;5.05;2.80;;;;;;;18.43;100.00;101755.56;10456586;28;20463;-74
2022/07/30 22:38:15;;;;;;;7.10;2.75;;;;;;;18.47;100.00;101765.03;10455227;28;20036;-73
2022/07/30 22:43:16;;;;;;;3.30;2.45;;;;;;;18.43;100.00;101758.38;10441385;28;20029;-74
2022/07/30 22:48:16;;;;;;;4.03;2.30;;;;;;;18.33;100.00;101743.38;10455035;28;20037;-74
2022/07/30 22:53:17;;;;;;;3.45;2.10;;;;;;;18.41;100.00;101755.03;10436462;28;20033;-74
2022/07/30 22:58:18;;;;;;;3.80;2.10;;;;;;;18.39;100.00;101760.88;10453313;28;20044;-74